Time;durP1;ratioP1;P1;durP2;ratioP2;P2;SDS_P1;SDS_P2;PMS_P1;PMS_P2;Temp;Humidity;BMP_temperature;BMP_pressure;BME280_temperature;BME280_humidity;BME280_pressure;Samples;Min_cycle;Max_cycle;Signal;HPM_P1;HPM_P2
2021/09/30 00:01:19;;;;;;;;;;;14.00;37.70;;;;;;4343209;32;19995;-37
2021/09/30 00:03:45;;;;;;;;;;;13.90;37.70;;;;;;4342930;32;19963;-37
2021/09/30 00:06:11;;;;;;;;;;;13.90;37.70;;;;;;4342982;32;20427;-36
2021/09/30 00:08:37;;;;;;;;;;;13.80;37.70;;;;;;4343212;32;19974;-37
2021/09/30 00:11:10;;;;;;;;;;;13.70;37.70;;;;;;4342906;32;19959;-37
2021/09/30 00:46:08;;;;;;;;;;;12.60;38.60;;;;;;4344108;32;19974;-36
2021/09/30 00:49:02;;;;;;;;;;;12.50;38.70;;;;;;4339808;33;20036;-36
2021/09/30 00:54:48;;;;;;;;;;;12.40;38.90;;;;;;4317128;33;19979;-37
2021/09/30 02:21:41;;;;;;;;;;;11.90;43.00;;;;;;4291569;33;20073;-36
2021/09/30 02:23:55;;;;;;;;;;;11.90;43.10;;;;;;4301941;33;19975;-36
2021/09/30 02:59:15;;;;;;;;;;;12.30;43.60;;;;;;4328876;33;20039;-38
2021/09/30 03:01:44;;;;;;;;;;;12.30;43.50;;;;;;4327332;33;19986;-38
2021/09/30 03:04:10;;;;;;;;;;;12.30;43.60;;;;;;4328596;33;20473;-36
2021/09/30 03:06:36;;;;;;;;;;;12.30;43.50;;;;;;4315074;33;20501;-36
2021/09/30 03:09:05;;;;;;;;;;;12.30;43.50;;;;;;4327234;33;20066;-37
2021/09/30 03:11:33;;;;;;;;;;;12.30;43.80;;;;;;4327034;33;19982;-40
2021/09/30 03:13:59;;;;;;;;;;;12.30;43.80;;;;;;4326860;33;20375;-36
2021/09/30 03:18:55;;;;;;;;;;;12.30;43.80;;;;;;4326981;33;19959;-37
2021/09/30 03:24:09;;;;;;;;;;;12.40;43.70;;;;;;4344000;33;19971;-37
2021/09/30 03:26:35;;;;;;;;;;;12.40;43.80;;;;;;4341634;33;20379;-37
2021/09/30 03:29:02;;;;;;;;;;;12.50;43.90;;;;;;4341641;33;19982;-37
2021/09/30 03:31:30;;;;;;;;;;;12.50;43.90;;;;;;4341498;33;19986;-38
2021/09/30 03:33:56;;;;;;;;;;;12.60;44.00;;;;;;4342090;33;19997;-37
2021/09/30 03:36:22;;;;;;;;;;;12.70;44.00;;;;;;4343278;33;20387;-37
2021/09/30 03:38:49;;;;;;;;;;;12.80;44.00;;;;;;4341652;33;19962;-37
2021/09/30 03:41:15;;;;;;;;;;;12.80;43.80;;;;;;4343225;32;19963;-36
2021/09/30 03:43:41;;;;;;;;;;;12.90;43.60;;;;;;4343253;32;19963;-37
2021/09/30 03:46:07;;;;;;;;;;;12.90;43.60;;;;;;4342080;33;20029;-38
2021/09/30 03:48:34;;;;;;;;;;;13.00;43.60;;;;;;4350430;32;19982;-37
2021/09/30 03:51:11;;;;;;;;;;;13.10;43.40;;;;;;4344172;32;20362;-37
2021/09/30 04:01:27;;;;;;;;;;;13.50;42.90;;;;;;4360702;32;19994;-39
2021/09/30 04:03:53;;;;;;;;;;;13.60;42.80;;;;;;4346765;32;19966;-37
2021/09/30 04:06:19;;;;;;;;;;;13.70;42.70;;;;;;4360780;32;20410;-37
2021/09/30 04:08:46;;;;;;;;;;;13.80;42.60;;;;;;4346670;32;19978;-36
2021/09/30 04:11:12;;;;;;;;;;;14.00;42.60;;;;;;4347030;32;19990;-38
2021/09/30 04:13:38;;;;;;;;;;;14.10;42.50;;;;;;4360889;32;19966;-37
2021/09/30 04:16:05;;;;;;;;;;;14.20;42.40;;;;;;4346660;32;20469;-36
2021/09/30 04:18:31;;;;;;;;;;;14.30;42.30;;;;;;4360921;32;19969;-37
2021/09/30 04:20:59;;;;;;;;;;;14.40;42.30;;;;;;4346557;32;20075;-37
2021/09/30 04:23:26;;;;;;;;;;;14.50;42.30;;;;;;4360359;32;19994;-37
2021/09/30 04:25:52;;;;;;;;;;;14.60;42.20;;;;;;4328393;33;20464;-37
2021/09/30 04:28:19;;;;;;;;;;;14.70;42.20;;;;;;4328062;33;19982;-38
2021/09/30 04:30:46;;;;;;;;;;;14.80;42.10;;;;;;4328076;33;20395;-36
2021/09/30 04:33:12;;;;;;;;;;;14.90;42.00;;;;;;4328034;33;20085;-37
2021/09/30 04:35:38;;;;;;;;;;;15.00;41.90;;;;;;4327052;33;19999;-36
2021/09/30 04:38:10;;;;;;;;;;;15.10;41.60;;;;;;4327682;33;20102;-37
2021/09/30 04:40:36;;;;;;;;;;;15.20;41.50;;;;;;4328193;33;20038;-37
2021/09/30 04:43:03;;;;;;;;;;;15.40;41.50;;;;;;4328498;33;19971;-37
2021/09/30 04:45:30;;;;;;;;;;;15.50;41.30;;;;;;4328419;33;19991;-37
2021/09/30 04:47:56;;;;;;;;;;;15.70;41.10;;;;;;4312475;33;19979;-37
2021/09/30 04:50:22;;;;;;;;;;;16.00;41.00;;;;;;4313105;33;20057;-37
2021/09/30 04:52:48;;;;;;;;;;;16.40;40.80;;;;;;4313358;33;19990;-37
2021/09/30 04:55:14;;;;;;;;;;;16.70;40.70;;;;;;4313361;33;19991;-37
2021/09/30 04:57:41;;;;;;;;;;;17.10;40.40;;;;;;4327612;33;20475;-37
2021/09/30 05:00:07;;;;;;;;;;;17.50;40.10;;;;;;4330420;33;19963;-37
2021/09/30 05:02:34;;;;;;;;;;;17.90;39.60;;;;;;4330372;33;19998;-37
2021/09/30 05:05:00;;;;;;;;;;;18.40;39.00;;;;;;4328833;33;19973;-36
2021/09/30 05:07:26;;;;;;;;;;;18.80;37.90;;;;;;4330158;33;19994;-36
2021/09/30 05:09:53;;;;;;;;;;;19.20;36.40;;;;;;4328346;33;19978;-36
2021/09/30 05:12:21;;;;;;;;;;;19.50;33.10;;;;;;4330498;33;19982;-37
2021/09/30 05:14:48;;;;;;;;;;;19.70;32.60;;;;;;4329038;33;19975;-36
2021/09/30 05:17:14;;;;;;;;;;;19.90;32.90;;;;;;4330039;33;19966;-37
2021/09/30 05:19:40;;;;;;;;;;;20.20;33.00;;;;;;4330491;33;19977;-36
2021/09/30 05:22:06;;;;;;;;;;;20.40;32.50;;;;;;4342083;33;20426;-36
2021/09/30 05:24:33;;;;;;;;;;;20.50;32.70;;;;;;4345049;33;20040;-36
2021/09/30 05:26:59;;;;;;;;;;;20.80;32.90;;;;;;4344751;33;19974;-36
2021/09/30 05:29:25;;;;;;;;;;;21.10;32.60;;;;;;4344677;33;20415;-37
2021/09/30 05:31:51;;;;;;;;;;;21.40;32.50;;;;;;4344524;33;19962;-36
2021/09/30 05:34:18;;;;;;;;;;;21.70;32.40;;;;;;4344431;33;19974;-38
2021/09/30 05:36:44;;;;;;;;;;;21.90;32.20;;;;;;4312340;33;20439;-36
2021/09/30 05:39:10;;;;;;;;;;;22.20;32.00;;;;;;4312397;33;19968;-36
2021/09/30 05:41:36;;;;;;;;;;;22.50;31.50;;;;;;4312184;33;20500;-36
2021/09/30 05:44:10;;;;;;;;;;;22.80;31.20;;;;;;4312615;33;20433;-35
2021/09/30 05:46:43;;;;;;;;;;;23.10;31.00;;;;;;4312534;33;20484;-36
2021/09/30 05:49:10;;;;;;;;;;;23.40;30.50;;;;;;4323496;33;20073;-36
2021/09/30 05:51:38;;;;;;;;;;;23.60;30.20;;;;;;4326800;33;20427;-36
2021/09/30 05:54:04;;;;;;;;;;;23.80;29.80;;;;;;4327451;33;20502;-36
2021/09/30 05:56:30;;;;;;;;;;;24.00;29.70;;;;;;4327126;33;20031;-35
2021/09/30 05:58:57;;;;;;;;;;;24.10;29.30;;;;;;4327442;33;20060;-36
2021/09/30 06:12:17;;;;;;;;;;;25.20;28.30;;;;;;4316396;33;20057;-36
2021/09/30 06:14:45;;;;;;;;;;;25.60;27.80;;;;;;4350211;32;19969;-36
2021/09/30 06:17:11;;;;;;;;;;;25.80;27.30;;;;;;4358629;32;19997;-35
2021/09/30 06:19:38;;;;;;;;;;;25.90;26.80;;;;;;4358925;32;20122;-36
2021/09/30 06:22:07;;;;;;;;;;;25.90;26.90;;;;;;4358527;32;19962;-37
2021/09/30 06:24:34;;;;;;;;;;;26.00;26.80;;;;;;4345431;32;19967;-38
2021/09/30 06:27:01;;;;;;;;;;;26.10;26.70;;;;;;4358711;32;19965;-37
2021/09/30 06:29:27;;;;;;;;;;;26.10;24.80;;;;;;4358869;32;19978;-37
2021/09/30 06:31:53;;;;;;;;;;;26.10;23.90;;;;;;4358345;32;19978;-38
2021/09/30 06:34:20;;;;;;;;;;;25.90;23.70;;;;;;4358835;32;20068;-38
2021/09/30 06:36:46;;;;;;;;;;;25.70;23.80;;;;;;4358737;32;20452;-38
2021/09/30 06:39:12;;;;;;;;;;;25.50;24.00;;;;;;4358445;32;20004;-37
2021/09/30 06:41:38;;;;;;;;;;;25.20;24.80;;;;;;4358412;32;19996;-37
2021/09/30 06:44:04;;;;;;;;;;;25.00;24.60;;;;;;4358134;32;20052;-37
2021/09/30 06:46:31;;;;;;;;;;;24.70;24.20;;;;;;4358212;32;19965;-37
2021/09/30 06:48:57;;;;;;;;;;;24.50;24.40;;;;;;4348154;32;19968;-37
2021/09/30 06:51:23;;;;;;;;;;;24.20;24.70;;;;;;4343692;33;20512;-38
2021/09/30 06:53:49;;;;;;;;;;;24.00;25.10;;;;;;4343894;33;19963;-38
2021/09/30 06:56:18;;;;;;;;;;;23.70;25.20;;;;;;4343473;33;19978;-38
2021/09/30 06:58:45;;;;;;;;;;;23.40;25.50;;;;;;4343459;33;20407;-37
2021/09/30 07:01:13;;;;;;;;;;;23.20;25.70;;;;;;4343328;33;19995;-37
2021/09/30 07:03:39;;;;;;;;;;;23.00;26.00;;;;;;4343306;33;20017;-38
2021/09/30 07:06:06;;;;;;;;;;;22.90;26.20;;;;;;4343689;33;19963;-38
2021/09/30 07:08:32;;;;;;;;;;;22.70;26.10;;;;;;4343262;33;19993;-38
2021/09/30 07:10:58;;;;;;;;;;;22.60;26.00;;;;;;4343176;33;19994;-38
2021/09/30 07:13:25;;;;;;;;;;;22.50;25.90;;;;;;4343364;33;20494;-37
2021/09/30 07:15:52;;;;;;;;;;;22.40;26.00;;;;;;4343625;33;19981;-38
2021/09/30 07:18:19;;;;;;;;;;;22.30;26.00;;;;;;4343328;33;19967;-38
2021/09/30 07:20:46;;;;;;;;;;;22.20;26.10;;;;;;4343224;33;20018;-38
2021/09/30 07:23:13;;;;;;;;;;;22.00;26.30;;;;;;4343167;33;19978;-38
2021/09/30 07:25:39;;;;;;;;;;;21.90;26.50;;;;;;4343136;33;20415;-38
2021/09/30 07:28:05;;;;;;;;;;;21.90;26.80;;;;;;4343000;33;19977;-38
2021/09/30 07:30:33;;;;;;;;;;;21.90;26.80;;;;;;4343123;33;20068;-39
2021/09/30 07:33:00;;;;;;;;;;;22.00;26.80;;;;;;4345185;33;19985;-38
2021/09/30 07:35:26;;;;;;;;;;;22.10;26.90;;;;;;4332387;33;20444;-38
2021/09/30 07:37:53;;;;;;;;;;;22.30;26.80;;;;;;4346794;33;20121;-37
2021/09/30 07:40:21;;;;;;;;;;;22.50;26.70;;;;;;4346328;33;20374;-38
2021/09/30 07:42:47;;;;;;;;;;;22.80;26.50;;;;;;4332153;33;19966;-37
2021/09/30 07:45:13;;;;;;;;;;;23.10;26.50;;;;;;4346162;33;20069;-37
2021/09/30 07:47:39;;;;;;;;;;;23.40;26.40;;;;;;4348245;32;21153;-38
2021/09/30 07:50:06;;;;;;;;;;;23.50;25.80;;;;;;4361046;32;20066;-38
2021/09/30 07:52:32;;;;;;;;;;;23.60;25.60;;;;;;4347139;32;20083;-38
2021/09/30 07:55:00;;;;;;;;;;;23.60;25.40;;;;;;4360622;32;19986;-37
2021/09/30 07:57:27;;;;;;;;;;;23.60;25.30;;;;;;4347125;32;20604;-38
2021/09/30 07:59:53;;;;;;;;;;;23.50;25.30;;;;;;4360896;32;19954;-38
2021/09/30 08:02:20;;;;;;;;;;;23.40;25.40;;;;;;4360485;32;20059;-38
2021/09/30 08:04:46;;;;;;;;;;;23.30;25.50;;;;;;4360843;32;19990;-39
2021/09/30 08:07:12;;;;;;;;;;;23.30;25.70;;;;;;4328149;33;20064;-38
2021/09/30 08:09:39;;;;;;;;;;;23.10;25.70;;;;;;4316580;33;19987;-39
2021/09/30 08:12:05;;;;;;;;;;;23.00;25.90;;;;;;4328727;33;19970;-37
2021/09/30 08:14:32;;;;;;;;;;;22.90;26.10;;;;;;4328502;33;20462;-37
2021/09/30 08:16:58;;;;;;;;;;;22.90;26.30;;;;;;4328811;33;19972;-38
2021/09/30 08:19:24;;;;;;;;;;;22.90;26.50;;;;;;4328923;33;20002;-38
2021/09/30 08:21:51;;;;;;;;;;;23.00;25.90;;;;;;4328262;33;19966;-39
2021/09/30 08:24:18;;;;;;;;;;;23.20;26.00;;;;;;4328354;33;20056;-39
2021/09/30 08:26:45;;;;;;;;;;;23.20;25.90;;;;;;4328249;33;19987;-38
2021/09/30 08:29:12;;;;;;;;;;;23.40;25.00;;;;;;4328334;33;20101;-39
2021/09/30 08:31:38;;;;;;;;;;;23.50;24.80;;;;;;4328067;33;19993;-38
2021/09/30 08:34:05;;;;;;;;;;;23.60;25.00;;;;;;4327926;33;20393;-39
2021/09/30 08:36:31;;;;;;;;;;;23.70;25.00;;;;;;4328393;33;19963;-39
2021/09/30 08:38:57;;;;;;;;;;;23.60;24.90;;;;;;4328331;33;19978;-39
2021/09/30 08:41:24;;;;;;;;;;;23.60;25.00;;;;;;4328159;33;20054;-37
2021/09/30 08:43:50;;;;;;;;;;;23.60;25.30;;;;;;4332983;32;19978;-37
2021/09/30 08:46:17;;;;;;;;;;;23.70;25.50;;;;;;4359752;32;20009;-37
2021/09/30 08:48:43;;;;;;;;;;;23.80;25.40;;;;;;4351742;32;20001;-37
2021/09/30 08:51:10;;;;;;;;;;;24.00;25.40;;;;;;4345293;33;19971;-37
2021/09/30 08:53:37;;;;;;;;;;;24.00;25.20;;;;;;4345192;33;19966;-37
2021/09/30 08:56:04;;;;;;;;;;;24.00;25.20;;;;;;4345430;33;19971;-36
2021/09/30 08:58:31;;;;;;;;;;;24.00;25.30;;;;;;4345080;33;20042;-37
2021/09/30 09:01:00;;;;;;;;;;;24.10;25.30;;;;;;4345316;33;19967;-37
2021/09/30 09:03:37;;;;;;;;;;;24.10;25.30;;;;;;4345540;33;19978;-37
2021/09/30 09:06:04;;;;;;;;;;;24.20;25.40;;;;;;4345006;33;20036;-37
2021/09/30 09:08:31;;;;;;;;;;;24.30;25.30;;;;;;4345091;33;20113;-37
2021/09/30 09:10:57;;;;;;;;;;;24.30;24.50;;;;;;4345192;33;19975;-37
2021/09/30 09:13:24;;;;;;;;;;;24.30;24.40;;;;;;4312384;33;20070;-37
2021/09/30 09:15:54;;;;;;;;;;;24.30;24.10;;;;;;4312979;33;20006;-37
2021/09/30 09:18:32;;;;;;;;;;;24.40;24.30;;;;;;4301221;33;20003;-37
2021/09/30 09:21:10;;;;;;;;;;;24.40;24.40;;;;;;4318288;33;19978;-37
2021/09/30 09:24:01;;;;;;;;;;;24.30;24.50;;;;;;4327232;33;20113;-37
2021/09/30 09:26:34;;;;;;;;;;;24.20;24.50;;;;;;4328200;33;20398;-37
2021/09/30 09:29:10;;;;;;;;;;;24.00;24.70;;;;;;4327302;33;19991;-38
2021/09/30 09:31:39;;;;;;;;;;;23.90;24.60;;;;;;4327681;33;19987;-37
2021/09/30 09:34:35;;;;;;;;;;;23.80;24.70;;;;;;4327753;33;20033;-38
2021/09/30 09:37:17;;;;;;;;;;;23.70;25.00;;;;;;4327316;33;20383;-37
2021/09/30 09:39:43;;;;;;;;;;;23.60;25.70;;;;;;4327445;33;19999;-38
2021/09/30 09:42:14;;;;;;;;;;;23.50;25.50;;;;;;4326999;33;19989;-37
2021/09/30 09:45:00;;;;;;;;;;;23.30;25.70;;;;;;4297834;33;19994;-37
2021/09/30 09:47:37;;;;;;;;;;;23.20;25.80;;;;;;4298487;33;19968;-37
2021/09/30 09:50:24;;;;;;;;;;;22.90;26.00;;;;;;4312878;33;19974;-37
2021/09/30 09:52:58;;;;;;;;;;;22.80;26.10;;;;;;4297831;33;19987;-37
2021/09/30 09:55:25;;;;;;;;;;;22.60;26.30;;;;;;4297529;33;20049;-37
2021/09/30 09:57:59;;;;;;;;;;;22.50;26.50;;;;;;4297888;33;20404;-37
2021/09/30 10:00:26;;;;;;;;;;;22.40;26.80;;;;;;4297412;33;20441;-38
2021/09/30 10:02:52;;;;;;;;;;;22.40;27.60;;;;;;4286013;33;19999;-37
2021/09/30 10:05:20;;;;;;;;;;;22.20;27.80;;;;;;4297674;33;19980;-37
2021/09/30 10:07:49;;;;;;;;;;;22.10;27.70;;;;;;4297605;33;20018;-38
2021/09/30 10:10:16;;;;;;;;;;;22.10;27.80;;;;;;4297600;33;19991;-37
2021/09/30 10:12:43;;;;;;;;;;;22.00;27.70;;;;;;4297523;33;19964;-37
2021/09/30 10:16:04;;;;;;;;;;;21.90;27.70;;;;;;3808484;37;19947;-38
2021/09/30 10:18:30;;;;;;;;;;;21.80;27.90;;;;;;4386358;32;19961;-37
2021/09/30 10:20:57;;;;;;;;;;;21.70;27.90;;;;;;4386240;32;20493;-37
2021/09/30 10:23:35;;;;;;;;;;;21.70;28.00;;;;;;4386379;32;19983;-37
2021/09/30 10:26:29;;;;;;;;;;;21.50;27.90;;;;;;4384860;32;19964;-38
2021/09/30 10:28:55;;;;;;;;;;;21.40;28.00;;;;;;4384057;32;20005;-37
2021/09/30 10:31:26;;;;;;;;;;;21.30;28.30;;;;;;4386253;32;19968;-38
2021/09/30 10:33:54;;;;;;;;;;;21.20;28.40;;;;;;4386197;32;20002;-38
2021/09/30 10:36:35;;;;;;;;;;;21.00;28.40;;;;;;4386158;32;19990;-38
2021/09/30 10:39:15;;;;;;;;;;;21.00;28.40;;;;;;4384351;32;20363;-38
2021/09/30 10:41:41;;;;;;;;;;;20.90;28.40;;;;;;4385614;32;20363;-38
2021/09/30 10:44:18;;;;;;;;;;;21.00;28.50;;;;;;4385634;32;19965;-38
2021/09/30 10:46:45;;;;;;;;;;;21.00;28.50;;;;;;4386168;32;19973;-38
2021/09/30 10:49:42;;;;;;;;;;;21.10;28.30;;;;;;4385751;32;19972;-40
2021/09/30 10:52:24;;;;;;;;;;;21.10;28.20;;;;;;4386174;32;20022;-37
2021/09/30 10:55:00;;;;;;;;;;;21.20;28.30;;;;;;4385708;32;19985;-38
2021/09/30 10:57:32;;;;;;;;;;;21.20;28.30;;;;;;4383702;32;20006;-37
2021/09/30 10:59:59;;;;;;;;;;;21.30;28.20;;;;;;4372920;32;19974;-38
2021/09/30 11:02:25;;;;;;;;;;;21.30;28.20;;;;;;4370211;32;19961;-38
2021/09/30 11:05:05;;;;;;;;;;;21.30;28.20;;;;;;4370288;32;20058;-38
2021/09/30 11:07:33;;;;;;;;;;;21.40;28.20;;;;;;4337860;33;19978;-38
2021/09/30 11:10:16;;;;;;;;;;;21.50;28.10;;;;;;4338251;33;19998;-38
2021/09/30 11:13:17;;;;;;;;;;;21.60;28.20;;;;;;4338004;33;19975;-38
2021/09/30 11:16:08;;;;;;;;;;;21.70;28.10;;;;;;4337880;33;20011;-37
2021/09/30 11:18:43;;;;;;;;;;;21.90;27.90;;;;;;4338234;33;19986;-37
2021/09/30 11:21:28;;;;;;;;;;;21.90;27.80;;;;;;4337932;33;19975;-38
2021/09/30 11:23:55;;;;;;;;;;;21.80;27.80;;;;;;4338315;33;19963;-37
2021/09/30 11:26:21;;;;;;;;;;;21.70;27.90;;;;;;4320708;33;19979;-37
2021/09/30 11:28:48;;;;;;;;;;;21.60;27.90;;;;;;4303761;33;20001;-38
2021/09/30 11:31:27;;;;;;;;;;;21.50;28.00;;;;;;4316009;33;20069;-38
2021/09/30 11:33:57;;;;;;;;;;;21.50;28.20;;;;;;4328170;33;19971;-37
2021/09/30 11:36:34;;;;;;;;;;;21.60;28.30;;;;;;4328089;33;20442;-38
2021/09/30 11:39:00;;;;;;;;;;;21.60;28.50;;;;;;4350268;32;19994;-41
2021/09/30 11:41:27;;;;;;;;;;;21.60;29.10;;;;;;4360282;32;19970;-39
2021/09/30 11:43:54;;;;;;;;;;;21.60;29.30;;;;;;4359924;32;20063;-37
2021/09/30 11:46:24;;;;;;;;;;;21.60;29.30;;;;;;4359723;32;20082;-38
2021/09/30 11:48:57;;;;;;;;;;;21.50;29.30;;;;;;4350820;32;19978;-38
2021/09/30 11:51:43;;;;;;;;;;;21.60;29.30;;;;;;4345005;32;19963;-37
2021/09/30 11:54:12;;;;;;;;;;;21.60;29.20;;;;;;4345142;32;19982;-41
2021/09/30 11:56:49;;;;;;;;;;;21.50;29.20;;;;;;4344951;32;19978;-38
2021/09/30 11:59:18;;;;;;;;;;;21.40;29.80;;;;;;4345592;32;20617;-38
2021/09/30 12:01:52;;;;;;;;;;;21.40;29.30;;;;;;4344937;32;19982;-39
2021/09/30 12:04:30;;;;;;;;;;;21.30;29.30;;;;;;4345109;32;19955;-38
2021/09/30 12:06:56;;;;;;;;;;;21.20;29.30;;;;;;4345002;33;20442;-37
2021/09/30 12:09:23;;;;;;;;;;;21.10;29.50;;;;;;4344503;32;20437;-37
2021/09/30 12:11:51;;;;;;;;;;;20.90;29.30;;;;;;4344706;32;20005;-38
2021/09/30 12:14:20;;;;;;;;;;;20.80;29.30;;;;;;4344931;32;19962;-38
2021/09/30 12:16:57;;;;;;;;;;;20.60;29.10;;;;;;4359052;32;20079;-37
2021/09/30 12:19:44;;;;;;;;;;;20.50;29.20;;;;;;4346046;32;20026;-36
2021/09/30 12:22:24;;;;;;;;;;;20.40;29.40;;;;;;4359433;32;19965;-37
2021/09/30 12:24:52;;;;;;;;;;;20.20;29.60;;;;;;4359176;32;20393;-38
2021/09/30 12:27:19;;;;;;;;;;;20.10;30.00;;;;;;4359128;32;20009;-38
2021/09/30 12:29:46;;;;;;;;;;;20.00;30.30;;;;;;4359373;32;19970;-43
2021/09/30 12:32:15;;;;;;;;;;;19.90;30.70;;;;;;4358921;32;19970;-39
2021/09/30 12:34:53;;;;;;;;;;;19.80;31.10;;;;;;4359486;32;19967;-38
2021/09/30 12:37:25;;;;;;;;;;;19.70;31.30;;;;;;4359093;32;19969;-38
2021/09/30 12:39:58;;;;;;;;;;;19.70;31.50;;;;;;4359165;32;19978;-37
2021/09/30 12:42:24;;;;;;;;;;;19.60;31.60;;;;;;4358853;32;19966;-38
2021/09/30 12:44:51;;;;;;;;;;;19.60;31.90;;;;;;4359125;32;19981;-37
2021/09/30 12:47:38;;;;;;;;;;;19.60;32.00;;;;;;4345057;32;19959;-38
2021/09/30 12:50:06;;;;;;;;;;;19.60;32.20;;;;;;4359536;32;19970;-38
2021/09/30 12:52:32;;;;;;;;;;;19.60;32.50;;;;;;4358672;32;19963;-38
2021/09/30 12:55:01;;;;;;;;;;;19.60;32.50;;;;;;4358513;32;20036;-39
2021/09/30 12:57:34;;;;;;;;;;;19.60;33.20;;;;;;4345589;32;20577;-38
2021/09/30 13:00:08;;;;;;;;;;;19.60;32.60;;;;;;4359329;32;20479;-37
2021/09/30 13:02:35;;;;;;;;;;;19.70;32.50;;;;;;4358562;32;20446;-37
2021/09/30 13:05:01;;;;;;;;;;;19.80;32.40;;;;;;4358649;32;20403;-37
2021/09/30 13:07:44;;;;;;;;;;;19.70;32.40;;;;;;4358879;32;19965;-38
2021/09/30 13:10:11;;;;;;;;;;;19.80;33.00;;;;;;4358923;32;19986;-37
2021/09/30 13:12:37;;;;;;;;;;;19.80;32.30;;;;;;4358620;32;19970;-37
2021/09/30 13:15:04;;;;;;;;;;;19.80;32.30;;;;;;4358275;32;19982;-36
2021/09/30 13:17:30;;;;;;;;;;;19.90;32.30;;;;;;4358863;32;20437;-38
2021/09/30 13:20:00;;;;;;;;;;;19.90;32.30;;;;;;4358799;32;19977;-38
2021/09/30 13:22:33;;;;;;;;;;;19.90;32.30;;;;;;4358618;32;19962;-37
2021/09/30 13:25:00;;;;;;;;;;;19.90;32.30;;;;;;4358691;32;19967;-37
2021/09/30 13:27:29;;;;;;;;;;;19.90;32.30;;;;;;4344522;32;19962;-37
2021/09/30 13:29:55;;;;;;;;;;;19.90;32.40;;;;;;4357024;32;19990;-38
2021/09/30 13:32:24;;;;;;;;;;;19.90;32.30;;;;;;4358302;32;19994;-37
2021/09/30 13:34:50;;;;;;;;;;;19.90;32.40;;;;;;4358392;32;19970;-38
2021/09/30 13:37:17;;;;;;;;;;;19.90;32.40;;;;;;4358071;32;20046;-39
2021/09/30 13:39:43;;;;;;;;;;;19.90;32.60;;;;;;4358355;32;19954;-37
2021/09/30 13:42:09;;;;;;;;;;;19.90;32.60;;;;;;4325830;33;19986;-38
2021/09/30 13:44:36;;;;;;;;;;;19.80;32.60;;;;;;4325788;33;20149;-38
2021/09/30 13:47:02;;;;;;;;;;;19.80;32.80;;;;;;4326068;33;19994;-38
2021/09/30 13:49:28;;;;;;;;;;;19.80;32.90;;;;;;4311042;33;19983;-37
2021/09/30 13:51:54;;;;;;;;;;;19.80;33.00;;;;;;4311968;33;19967;-37
2021/09/30 13:54:21;;;;;;;;;;;19.70;32.90;;;;;;4311001;33;20521;-38
2021/09/30 13:56:47;;;;;;;;;;;19.70;32.90;;;;;;4311094;33;20061;-38
2021/09/30 13:59:13;;;;;;;;;;;19.70;32.90;;;;;;4312147;33;20036;-38
2021/09/30 14:01:39;;;;;;;;;;;19.70;32.90;;;;;;4299126;33;20495;-37
2021/09/30 14:04:05;;;;;;;;;;;19.60;32.80;;;;;;4310925;33;19990;-38
2021/09/30 14:06:32;;;;;;;;;;;19.60;32.90;;;;;;4311556;33;19995;-37
2021/09/30 14:08:58;;;;;;;;;;;19.60;32.90;;;;;;4310965;33;19991;-38
2021/09/30 14:11:24;;;;;;;;;;;19.60;32.90;;;;;;4311026;33;20450;-37
2021/09/30 14:13:53;;;;;;;;;;;19.50;32.80;;;;;;4311402;33;19982;-38
2021/09/30 14:16:23;;;;;;;;;;;19.40;32.80;;;;;;4310944;33;19987;-38
2021/09/30 14:18:49;;;;;;;;;;;19.20;33.20;;;;;;4292619;33;19996;-37
2021/09/30 14:21:16;;;;;;;;;;;19.00;33.60;;;;;;4367908;32;19997;-38
2021/09/30 14:23:42;;;;;;;;;;;18.90;34.00;;;;;;4325464;33;19975;-38
2021/09/30 14:26:08;;;;;;;;;;;18.70;34.40;;;;;;4325834;33;20025;-38
2021/09/30 14:28:35;;;;;;;;;;;18.50;34.70;;;;;;4325548;33;20052;-38
2021/09/30 14:31:01;;;;;;;;;;;18.40;35.00;;;;;;4314020;33;20001;-38
2021/09/30 14:33:28;;;;;;;;;;;18.30;35.10;;;;;;4313935;33;20001;-38
2021/09/30 14:35:54;;;;;;;;;;;18.20;35.40;;;;;;4325674;33;20440;-38
2021/09/30 14:38:22;;;;;;;;;;;18.10;35.90;;;;;;4325649;33;19985;-38
2021/09/30 14:40:50;;;;;;;;;;;17.90;36.20;;;;;;4325962;33;20000;-38
2021/09/30 14:43:22;;;;;;;;;;;17.80;36.70;;;;;;4326158;33;20059;-39
2021/09/30 14:45:49;;;;;;;;;;;17.60;36.80;;;;;;4296356;33;19988;-38
2021/09/30 14:48:16;;;;;;;;;;;17.60;37.20;;;;;;4296340;33;19979;-38
2021/09/30 14:50:42;;;;;;;;;;;17.50;37.30;;;;;;4296681;33;20103;-37
2021/09/30 14:53:09;;;;;;;;;;;17.50;37.50;;;;;;4296532;33;19987;-38
2021/09/30 14:55:35;;;;;;;;;;;17.40;37.50;;;;;;4296711;33;19974;-38
2021/09/30 14:58:02;;;;;;;;;;;17.40;37.60;;;;;;4295910;33;20002;-38
2021/09/30 15:00:28;;;;;;;;;;;17.40;37.60;;;;;;4302184;33;19975;-38
2021/09/30 15:02:54;;;;;;;;;;;17.30;37.80;;;;;;4327472;33;19967;-38
2021/09/30 15:05:21;;;;;;;;;;;17.20;38.00;;;;;;4327885;33;20125;-38
2021/09/30 15:07:47;;;;;;;;;;;17.10;38.30;;;;;;4328613;33;20068;-39
2021/09/30 15:10:13;;;;;;;;;;;17.00;38.70;;;;;;4327928;33;19979;-38
2021/09/30 15:12:39;;;;;;;;;;;16.90;39.10;;;;;;4328542;33;20001;-38
2021/09/30 15:15:06;;;;;;;;;;;16.90;39.20;;;;;;4316042;33;19970;-38
2021/09/30 15:22:36;;;;;;;;;;;16.80;39.70;;;;;;4360359;32;19986;-39
2021/09/30 15:25:02;;;;;;;;;;;16.80;39.80;;;;;;4346744;32;19966;-37
2021/09/30 15:27:29;;;;;;;;;;;16.80;39.90;;;;;;4360408;32;19990;-38
2021/09/30 15:29:55;;;;;;;;;;;16.80;39.90;;;;;;4360482;32;19969;-38
2021/09/30 15:32:21;;;;;;;;;;;16.80;40.10;;;;;;4360127;32;19985;-38
2021/09/30 15:34:49;;;;;;;;;;;16.70;40.00;;;;;;4360072;32;20025;-39
2021/09/30 15:37:16;;;;;;;;;;;16.70;40.00;;;;;;4360155;32;19969;-39
2021/09/30 15:39:42;;;;;;;;;;;16.60;40.00;;;;;;4360270;32;20005;-39
2021/09/30 15:42:12;;;;;;;;;;;16.50;40.00;;;;;;4360062;32;19979;-38
2021/09/30 15:44:39;;;;;;;;;;;16.50;40.10;;;;;;4360372;32;19986;-38
2021/09/30 15:47:06;;;;;;;;;;;16.50;40.10;;;;;;4346065;32;19990;-38
2021/09/30 15:49:32;;;;;;;;;;;16.50;40.00;;;;;;4373519;32;19974;-38
2021/09/30 15:51:59;;;;;;;;;;;16.50;40.10;;;;;;4374934;32;20112;-39
2021/09/30 15:54:25;;;;;;;;;;;16.50;40.50;;;;;;4375457;32;19962;-39
2021/09/30 15:56:51;;;;;;;;;;;16.50;40.50;;;;;;4375678;32;20082;-38
2021/09/30 15:59:17;;;;;;;;;;;16.50;40.70;;;;;;4375020;32;19984;-39
2021/09/30 16:01:44;;;;;;;;;;;16.50;41.30;;;;;;4374717;32;20009;-39
2021/09/30 16:04:10;;;;;;;;;;;16.50;40.80;;;;;;4374902;32;20002;-39
2021/09/30 16:06:36;;;;;;;;;;;16.50;40.80;;;;;;4374988;32;20399;-40
2021/09/30 16:09:02;;;;;;;;;;;16.50;40.80;;;;;;4374822;32;19985;-40
2021/09/30 16:11:29;;;;;;;;;;;16.50;40.80;;;;;;4374604;32;19985;-39
2021/09/30 16:13:55;;;;;;;;;;;16.50;41.10;;;;;;4374488;32;19954;-40
2021/09/30 16:16:21;;;;;;;;;;;16.50;41.00;;;;;;4374502;32;19962;-41
2021/09/30 16:18:47;;;;;;;;;;;16.60;41.00;;;;;;4374546;32;19965;-40
2021/09/30 16:21:14;;;;;;;;;;;16.60;40.90;;;;;;4375069;32;19978;-39
2021/09/30 16:23:40;;;;;;;;;;;16.60;40.80;;;;;;4341884;33;20178;-39
2021/09/30 16:26:07;;;;;;;;;;;16.60;40.80;;;;;;4329869;33;19962;-40
2021/09/30 16:28:33;;;;;;;;;;;16.60;40.80;;;;;;4342131;33;20014;-41
2021/09/30 16:31:00;;;;;;;;;;;16.60;40.70;;;;;;4342491;33;19971;-38
2021/09/30 16:33:27;;;;;;;;;;;16.60;40.70;;;;;;4329954;33;19998;-39
2021/09/30 16:35:55;;;;;;;;;;;16.60;40.70;;;;;;4342233;33;20047;-39
2021/09/30 16:38:22;;;;;;;;;;;16.60;40.70;;;;;;4329827;33;20456;-39
2021/09/30 16:40:49;;;;;;;;;;;16.60;40.80;;;;;;4341443;33;20403;-40
2021/09/30 16:43:17;;;;;;;;;;;16.70;40.80;;;;;;4341957;33;19995;-40
2021/09/30 16:45:43;;;;;;;;;;;16.60;40.60;;;;;;4329687;33;19975;-40
2021/09/30 16:48:09;;;;;;;;;;;16.60;40.80;;;;;;4341995;33;19973;-39
2021/09/30 16:50:35;;;;;;;;;;;16.60;40.90;;;;;;4341837;33;20016;-39
2021/09/30 16:53:02;;;;;;;;;;;16.60;41.00;;;;;;4341740;33;20403;-39
2021/09/30 16:55:28;;;;;;;;;;;16.60;41.10;;;;;;4356457;32;19963;-40
2021/09/30 16:57:55;;;;;;;;;;;16.60;41.20;;;;;;4359394;32;19970;-40
2021/09/30 17:00:21;;;;;;;;;;;16.50;41.40;;;;;;4359161;32;19997;-39
2021/09/30 17:02:47;;;;;;;;;;;16.50;42.20;;;;;;4359183;32;20005;-39
2021/09/30 17:05:14;;;;;;;;;;;16.50;41.50;;;;;;4358696;32;19955;-39
2021/09/30 17:07:40;;;;;;;;;;;16.50;41.50;;;;;;4358953;32;20001;-40
2021/09/30 17:10:10;;;;;;;;;;;16.50;41.70;;;;;;4358732;32;19954;-39
2021/09/30 17:12:40;;;;;;;;;;;16.50;41.70;;;;;;4358705;32;19981;-39
2021/09/30 17:15:07;;;;;;;;;;;16.50;41.70;;;;;;4358840;32;20043;-39
2021/09/30 17:17:34;;;;;;;;;;;16.60;41.70;;;;;;4358814;32;19966;-39
2021/09/30 17:20:01;;;;;;;;;;;16.50;41.70;;;;;;4358626;32;20053;-39
2021/09/30 17:22:27;;;;;;;;;;;16.60;41.90;;;;;;4344974;32;20119;-39
2021/09/30 17:24:53;;;;;;;;;;;16.60;41.90;;;;;;4358327;32;19974;-39
2021/09/30 17:27:20;;;;;;;;;;;16.60;41.90;;;;;;4358579;32;19974;-39